createdAt,value
2019-05-06T00:00:11.444Z,100839.26
2019-05-06T00:02:45.675Z,100834.97
2019-05-06T00:05:17.456Z,100830.81
2019-05-06T00:07:56.926Z,100833.72
2019-05-06T00:10:36.393Z,100830.86
2019-05-06T00:13:08.522Z,100833.27
2019-05-06T00:15:40.606Z,100842.77
2019-05-06T00:18:13.871Z,100833.15
2019-05-06T00:20:46.301Z,100835.31
2019-05-06T00:23:24.928Z,100829.54
2019-05-06T00:26:15.810Z,100833.00
2019-05-06T00:28:53.763Z,100834.34
2019-05-06T00:31:25.539Z,100829.63
2019-05-06T00:33:57.465Z,100823.64
2019-05-06T00:36:28.840Z,100822.88
2019-05-06T00:39:06.206Z,100826.06
2019-05-06T00:41:39.228Z,100827.05
2019-05-06T00:44:11.193Z,100824.46
2019-05-06T00:46:43.777Z,100823.69
2019-05-06T00:49:17.611Z,100818.59
2019-05-06T00:51:49.628Z,100819.48
2019-05-06T00:54:24.837Z,100823.48
2019-05-06T00:56:59.336Z,100816.98
2019-05-06T00:59:31.172Z,100823.22
2019-05-06T01:02:04.668Z,100821.56
2019-05-06T01:04:37.931Z,100820.28
2019-05-06T01:07:14.055Z,100818.14
2019-05-06T01:09:46.310Z,100818.54
2019-05-06T01:12:24.073Z,100825.94
2019-05-06T01:14:57.970Z,100828.93
2019-05-06T01:17:29.877Z,100830.64
2019-05-06T01:20:01.782Z,100825.46
2019-05-06T01:22:34.215Z,100825.36
2019-05-06T01:25:10.036Z,100830.17
2019-05-06T01:27:41.856Z,100830.99
2019-05-06T01:30:14.649Z,100828.00
2019-05-06T01:32:47.336Z,100831.80
2019-05-06T01:35:19.337Z,100826.19
2019-05-06T01:38:10.232Z,100828.83
2019-05-06T01:41:16.483Z,100833.68
2019-05-06T01:43:48.724Z,100835.47
2019-05-06T01:46:20.675Z,100830.86
2019-05-06T01:48:53.588Z,100832.16
2019-05-06T01:51:25.751Z,100829.00
2019-05-06T01:53:58.099Z,100833.43
2019-05-06T01:56:30.160Z,100834.25
2019-05-06T01:59:05.299Z,100834.77
2019-05-06T02:01:37.311Z,100827.69
2019-05-06T02:04:09.376Z,100833.75
2019-05-06T02:06:43.754Z,100830.37
2019-05-06T02:09:25.519Z,100839.98
2019-05-06T02:11:57.721Z,100846.02
2019-05-06T02:14:29.701Z,100839.89
2019-05-06T02:17:03.612Z,100835.94
2019-05-06T02:19:35.446Z,100839.03
2019-05-06T02:22:18.691Z,100842.50
2019-05-06T02:25:04.311Z,100838.16
2019-05-06T02:27:35.054Z,100842.05
2019-05-06T02:30:19.568Z,100836.38
2019-05-06T02:32:57.599Z,100839.31
2019-05-06T02:35:36.663Z,100843.23
2019-05-06T02:38:26.537Z,100843.94
2019-05-06T02:40:56.640Z,100844.73
2019-05-06T02:43:27.829Z,100848.92
2019-05-06T02:46:03.981Z,100848.30
2019-05-06T02:48:43.352Z,100849.79
2019-05-06T02:51:18.085Z,100850.79
2019-05-06T02:53:49.935Z,100851.58
2019-05-06T02:56:23.970Z,100849.72
2019-05-06T02:58:55.332Z,100844.97
2019-05-06T03:01:26.501Z,100852.33
2019-05-06T03:03:57.612Z,100857.41
2019-05-06T03:06:29.788Z,100853.97
2019-05-06T03:09:03.193Z,100852.19
2019-05-06T03:11:37.007Z,100855.52
2019-05-06T03:14:08.915Z,100855.44
2019-05-06T03:16:43.699Z,100856.75
2019-05-06T03:19:16.201Z,100862.93
2019-05-06T03:22:08.805Z,100853.34
2019-05-06T03:24:57.345Z,100861.05
2019-05-06T03:27:29.516Z,100862.54
2019-05-06T03:30:04.086Z,100860.81
2019-05-06T03:32:41.637Z,100864.50
2019-05-06T03:35:31.480Z,100857.55
2019-05-06T03:37:44.023Z,100869.95
2019-05-06T03:40:16.588Z,100868.86
2019-05-06T03:42:48.539Z,100873.63
2019-05-06T03:45:33.415Z,100883.68
2019-05-06T03:48:07.478Z,100880.49
2019-05-06T03:50:39.465Z,100887.90
2019-05-06T03:53:14.051Z,100880.34
2019-05-06T03:55:48.091Z,100880.91
2019-05-06T03:58:26.320Z,100880.70
2019-05-06T04:00:57.208Z,100880.84
2019-05-06T04:03:43.941Z,100883.62
2019-05-06T04:06:06.763Z,100885.09
2019-05-06T04:08:44.187Z,100880.41
2019-05-06T04:11:25.082Z,100887.48
2019-05-06T04:14:02.523Z,100890.15
2019-05-06T04:16:53.389Z,100887.23
2019-05-06T04:19:43.728Z,100888.58
2019-05-06T04:22:28.255Z,100886.54
2019-05-06T04:25:17.343Z,100894.58
2019-05-06T04:27:53.761Z,100898.18
2019-05-06T04:30:26.234Z,100901.00
2019-05-06T04:32:58.793Z,100898.06
2019-05-06T04:35:33.722Z,100899.56
2019-05-06T04:38:05.217Z,100899.80
2019-05-06T04:40:37.220Z,100900.88
2019-05-06T04:43:13.062Z,100904.52
2019-05-06T04:45:43.626Z,100903.33
2019-05-06T04:48:15.160Z,100908.22
2019-05-06T04:50:47.187Z,100909.20
2019-05-06T04:53:19.642Z,100911.02
2019-05-06T04:55:53.768Z,100915.41
2019-05-06T04:58:26.679Z,100916.80
2019-05-06T05:00:58.264Z,100917.73
2019-05-06T05:03:33.373Z,100917.75
2019-05-06T05:06:05.724Z,100923.01
2019-05-06T05:08:46.266Z,100926.53
2019-05-06T05:11:35.054Z,100931.40
2019-05-06T05:14:21.688Z,100932.78
2019-05-06T05:17:06.498Z,100929.76
2019-05-06T05:19:38.430Z,100931.53
2019-05-06T05:22:29.380Z,100927.58
2019-05-06T05:25:03.514Z,100930.22
2019-05-06T05:27:35.404Z,100935.04
2019-05-06T05:30:09.727Z,100937.66
2019-05-06T05:32:42.809Z,100934.12
2019-05-06T05:35:14.946Z,100934.98
2019-05-06T05:37:47.308Z,100936.77
2019-05-06T05:40:19.426Z,100932.43
2019-05-06T05:43:13.466Z,100931.51
2019-05-06T05:45:46.710Z,100931.92
2019-05-06T05:48:32.421Z,100932.34
2019-05-06T05:51:03.464Z,100938.98
2019-05-06T05:53:35.605Z,100939.44
2019-05-06T05:56:08.362Z,100939.42
2019-05-06T05:58:42.471Z,100943.35
2019-05-06T06:01:13.858Z,100947.28
2019-05-06T06:03:45.685Z,100943.33
2019-05-06T06:06:17.975Z,100945.53
2019-05-06T06:08:52.106Z,100946.85
2019-05-06T06:11:39.288Z,100943.77
2019-05-06T06:14:29.398Z,100949.92
2019-05-06T06:17:23.262Z,100949.04
2019-05-06T06:20:02.505Z,100949.93
2019-05-06T06:22:35.307Z,100948.63
2019-05-06T06:25:07.008Z,100946.89
2019-05-06T06:27:49.261Z,100954.77
2019-05-06T06:30:29.312Z,100950.83
2019-05-06T06:33:02.605Z,100951.27
2019-05-06T06:35:48.014Z,100952.57
2019-05-06T06:38:46.671Z,100949.94
2019-05-06T06:41:22.803Z,100947.75
2019-05-06T06:43:59.622Z,100950.78
2019-05-06T06:46:32.405Z,100951.61
2019-05-06T06:49:04.722Z,100952.80
2019-05-06T06:51:36.134Z,100954.92
2019-05-06T06:54:09.060Z,100953.16
2019-05-06T06:57:08.674Z,100943.88
2019-05-06T06:59:52.229Z,100943.05
2019-05-06T07:02:44.078Z,100938.66
2019-05-06T07:05:28.512Z,100943.44
2019-05-06T07:08:05.217Z,100948.72
2019-05-06T07:10:43.603Z,100953.20
2019-05-06T07:13:18.362Z,100947.02
2019-05-06T07:18:52.606Z,100945.64
2019-05-06T07:21:33.552Z,100941.30
2019-05-06T07:24:05.201Z,100938.99
2019-05-06T07:26:44.993Z,100940.95
2019-05-06T07:29:24.266Z,100942.64
2019-05-06T07:31:54.277Z,100940.38
2019-05-06T07:34:27.413Z,100936.80
2019-05-06T07:36:59.025Z,100943.47
2019-05-06T07:39:33.912Z,100939.56
2019-05-06T07:42:13.223Z,100931.70
2019-05-06T07:45:12.716Z,100931.72
2019-05-06T07:47:53.411Z,100936.80
2019-05-06T07:50:25.146Z,100938.63
2019-05-06T07:53:10.255Z,100946.97
2019-05-06T07:55:42.591Z,100940.73
2019-05-06T07:58:14.033Z,100943.22
2019-05-06T08:00:47.490Z,100939.08
2019-05-06T08:03:24.336Z,100942.64
2019-05-06T08:05:58.734Z,100945.25
2019-05-06T08:08:29.981Z,100938.23
2019-05-06T08:11:02.713Z,100943.56
2019-05-06T08:13:34.135Z,100933.59
2019-05-06T08:16:10.023Z,100936.28
2019-05-06T08:18:42.578Z,100943.00
2019-05-06T08:21:22.350Z,100936.20
2019-05-06T08:23:54.299Z,100936.76
2019-05-06T08:26:29.106Z,100940.06
2019-05-06T08:29:19.897Z,100945.03
2019-05-06T08:32:03.853Z,100954.14
2019-05-06T08:34:35.695Z,100957.69
2019-05-06T08:37:26.360Z,100953.28
2019-05-06T08:39:58.187Z,100953.45
2019-05-06T08:42:30.092Z,100947.84
2019-05-06T08:45:02.311Z,100949.25
2019-05-06T08:47:34.392Z,100945.85
2019-05-06T08:50:12.782Z,100938.28
2019-05-06T08:53:18.971Z,100937.00
2019-05-06T08:55:52.919Z,100939.91
2019-05-06T08:58:43.501Z,100928.95
2019-05-06T09:01:42.226Z,100934.88
2019-05-06T09:04:16.324Z,100931.38
2019-05-06T09:06:47.296Z,100937.50
2019-05-06T09:09:18.499Z,100933.64
2019-05-06T09:11:50.281Z,100927.05
2019-05-06T09:14:23.217Z,100938.14
2019-05-06T09:16:55.678Z,100930.34
2019-05-06T09:19:27.628Z,100926.77
2019-05-06T09:21:59.445Z,100935.73
2019-05-06T09:24:32.152Z,100942.05
2019-05-06T09:27:14.604Z,100941.14
2019-05-06T09:30:07.416Z,100943.70
2019-05-06T09:32:42.866Z,100935.55
2019-05-06T09:35:15.184Z,100938.75
2019-05-06T09:37:46.341Z,100934.47
2019-05-06T09:40:18.342Z,100930.70
2019-05-06T09:42:51.936Z,100933.94
2019-05-06T09:45:22.972Z,100934.28
2019-05-06T09:48:03.492Z,100928.41
2019-05-06T09:50:45.450Z,100927.64
2019-05-06T09:53:18.665Z,100924.99
2019-05-06T09:56:15.458Z,100926.44
2019-05-06T09:58:47.350Z,100921.73
2019-05-06T10:01:19.290Z,100920.16
2019-05-06T10:03:52.802Z,100923.31
2019-05-06T10:06:24.092Z,100924.58
2019-05-06T10:08:55.392Z,100928.03
2019-05-06T10:11:27.171Z,100919.48
2019-05-06T10:13:59.078Z,100927.20
2019-05-06T10:16:32.505Z,100923.13
2019-05-06T10:19:04.700Z,100925.75
2019-05-06T10:21:36.737Z,100924.45
2019-05-06T10:24:08.848Z,100920.31
2019-05-06T10:26:45.909Z,100922.45
2019-05-06T10:29:25.792Z,100926.47
2019-05-06T10:32:16.479Z,100926.80
2019-05-06T10:34:47.776Z,100921.78
2019-05-06T10:37:37.120Z,100914.17
2019-05-06T10:40:23.648Z,100923.70
2019-05-06T10:43:28.977Z,100917.27
2019-05-06T10:46:01.874Z,100910.45
2019-05-06T10:48:34.437Z,100898.92
2019-05-06T10:51:16.842Z,100898.86
2019-05-06T10:53:47.388Z,100899.36
2019-05-06T10:56:49.827Z,100900.56
2019-05-06T10:59:12.871Z,100896.40
2019-05-06T11:01:45.845Z,100901.61
2019-05-06T11:04:17.697Z,100902.80
2019-05-06T11:06:49.494Z,100906.02
2019-05-06T11:09:22.677Z,100903.39
2019-05-06T11:11:54.126Z,100906.59
2019-05-06T11:14:25.883Z,100909.25
2019-05-06T11:16:57.700Z,100913.08
2019-05-06T11:19:29.517Z,100914.59
2019-05-06T11:22:03.626Z,100908.30
2019-05-06T11:24:34.951Z,100904.23
2019-05-06T11:27:06.887Z,100898.33
2019-05-06T11:29:40.439Z,100900.22
2019-05-06T11:32:29.759Z,100898.75
2019-05-06T11:35:05.820Z,100900.02
2019-05-06T11:38:05.531Z,100899.56
2019-05-06T11:40:37.409Z,100897.66
2019-05-06T11:43:09.327Z,100893.90
2019-05-06T11:45:42.757Z,100897.92
2019-05-06T11:48:14.799Z,100889.23
2019-05-06T11:50:48.430Z,100894.05
2019-05-06T11:53:20.351Z,100885.52
2019-05-06T11:55:54.447Z,100883.97
2019-05-06T11:58:42.897Z,100883.26
2019-05-06T12:01:23.624Z,100884.43
2019-05-06T12:03:55.494Z,100894.59
2019-05-06T12:06:27.484Z,100898.42
2019-05-06T12:08:59.323Z,100893.88
2019-05-06T12:11:31.270Z,100898.73
2019-05-06T12:14:03.111Z,100896.00
2019-05-06T12:16:35.892Z,100888.20
2019-05-06T12:19:07.806Z,100889.52
2019-05-06T12:21:39.659Z,100888.78
2019-05-06T12:24:12.254Z,100880.16
2019-05-06T12:26:44.213Z,100878.52
2019-05-06T12:29:16.146Z,100879.43
2019-05-06T12:31:52.937Z,100876.30
2019-05-06T12:34:24.919Z,100872.32
2019-05-06T12:36:58.818Z,100870.05
2019-05-06T12:39:33.191Z,100870.27
2019-05-06T12:42:18.717Z,100881.02
2019-05-06T12:45:08.838Z,100877.69
2019-05-06T12:48:05.611Z,100876.94
2019-05-06T12:50:38.054Z,100866.71
2019-05-06T12:53:09.981Z,100877.73
2019-05-06T12:55:43.074Z,100877.59
2019-05-06T12:58:20.203Z,100880.20
2019-05-06T13:00:49.419Z,100873.64
2019-05-06T13:03:23.294Z,100874.98
2019-05-06T13:05:53.611Z,100874.00
2019-05-06T13:08:32.491Z,100874.77
2019-05-06T13:10:59.092Z,100877.00
2019-05-06T13:13:32.982Z,100878.17
2019-05-06T13:16:04.437Z,100872.47
2019-05-06T13:18:36.255Z,100875.78
2019-05-06T13:21:09.172Z,100873.05
2019-05-06T13:23:45.473Z,100877.34
2019-05-06T13:26:16.781Z,100872.80
2019-05-06T13:28:53.300Z,100867.17
2019-05-06T13:31:25.807Z,100869.38
2019-05-06T13:34:05.059Z,100865.83
2019-05-06T13:36:37.045Z,100864.69
2019-05-06T13:39:14.370Z,100860.25
2019-05-06T13:41:42.315Z,100858.02
2019-05-06T13:44:15.829Z,100857.95
2019-05-06T13:47:06.865Z,100858.88
2019-05-06T13:49:52.213Z,100859.97
2019-05-06T13:52:26.611Z,100875.83
2019-05-06T13:54:58.461Z,100863.67
2019-05-06T13:57:32.053Z,100869.88
2019-05-06T14:00:04.575Z,100870.51
2019-05-06T14:02:53.456Z,100866.52
2019-05-06T14:05:26.982Z,100866.94
2019-05-06T14:08:01.672Z,100867.67
2019-05-06T14:10:32.803Z,100871.83
2019-05-06T14:13:04.670Z,100863.14
2019-05-06T14:15:36.591Z,100856.95
2019-05-06T14:18:08.426Z,100871.54
2019-05-06T14:20:40.328Z,100864.94
2019-05-06T14:23:13.344Z,100863.26
2019-05-06T14:26:04.131Z,100857.90
2019-05-06T14:28:55.198Z,100860.08
2019-05-06T14:31:29.664Z,100855.28
2019-05-06T14:34:00.984Z,100849.06
2019-05-06T14:36:32.958Z,100850.85
2019-05-06T14:39:07.520Z,100848.98
2019-05-06T14:41:44.523Z,100851.72
2019-05-06T14:44:16.380Z,100853.48
2019-05-06T14:47:12.623Z,100855.45
2019-05-06T14:49:45.509Z,100853.47
2019-05-06T14:52:17.721Z,100861.22
2019-05-06T14:54:54.036Z,100852.98
2019-05-06T14:57:26.680Z,100850.73
2019-05-06T14:59:57.937Z,100854.55
2019-05-06T15:02:29.315Z,100856.30
2019-05-06T15:05:03.040Z,100851.66
2019-05-06T15:07:35.616Z,100853.66
2019-05-06T15:10:22.967Z,100851.58
2019-05-06T15:12:50.141Z,100851.76
2019-05-06T15:15:22.946Z,100857.05
2019-05-06T15:17:55.320Z,100852.39
2019-05-06T15:20:27.349Z,100852.64
2019-05-06T15:23:04.400Z,100855.45
2019-05-06T15:25:33.514Z,100856.66
2019-05-06T15:28:05.140Z,100856.93
2019-05-06T15:30:44.179Z,100855.65
2019-05-06T15:33:18.353Z,100861.05
2019-05-06T15:36:18.255Z,100857.20
2019-05-06T15:38:52.606Z,100845.97
2019-05-06T15:41:23.953Z,100846.84
2019-05-06T15:43:56.132Z,100850.96
2019-05-06T15:46:27.663Z,100858.65
2019-05-06T15:48:59.914Z,100855.08
2019-05-06T15:51:35.114Z,100850.52
2019-05-06T15:54:17.831Z,100857.53
2019-05-06T15:56:53.288Z,100846.12
2019-05-06T15:59:24.254Z,100851.48
2019-05-06T16:01:56.619Z,100845.84
2019-05-06T16:04:28.713Z,100844.25
2019-05-06T16:07:02.835Z,100850.43
2019-05-06T16:09:39.744Z,100848.15
2019-05-06T16:12:12.749Z,100839.56
2019-05-06T16:14:46.211Z,100844.77
2019-05-06T16:17:18.365Z,100846.16
2019-05-06T16:19:50.002Z,100840.56
2019-05-06T16:22:28.199Z,100840.66
2019-05-06T16:25:17.483Z,100842.23
2019-05-06T16:27:54.514Z,100841.13
2019-05-06T16:30:24.901Z,100838.33
2019-05-06T16:32:56.777Z,100840.22
2019-05-06T16:35:28.210Z,100843.18
2019-05-06T16:38:02.696Z,100842.64
2019-05-06T16:40:42.578Z,100838.44
2019-05-06T16:44:04.634Z,100840.41
2019-05-06T16:46:27.766Z,100834.64
2019-05-06T16:48:52.591Z,100837.85
2019-05-06T16:51:32.615Z,100830.92
2019-05-06T16:54:02.127Z,100829.75
2019-05-06T16:56:52.917Z,100834.48
2019-05-06T16:59:27.669Z,100831.22
2019-05-06T17:02:01.218Z,100840.28
2019-05-06T17:04:42.465Z,100832.38
2019-05-06T17:07:15.064Z,100843.06
2019-05-06T17:09:47.869Z,100833.78
2019-05-06T17:12:19.291Z,100835.08
2019-05-06T17:14:52.436Z,100838.38
2019-05-06T17:17:24.449Z,100836.29
2019-05-06T17:19:56.641Z,100840.20
2019-05-06T17:22:32.988Z,100839.98
2019-05-06T17:25:04.605Z,100834.14
2019-05-06T17:27:38.537Z,100848.16
2019-05-06T17:30:46.025Z,100839.65
2019-05-06T17:33:35.264Z,100839.11
2019-05-06T17:36:09.284Z,100840.77
2019-05-06T17:38:44.697Z,100844.27
2019-05-06T17:41:16.209Z,100849.52
2019-05-06T17:43:47.536Z,100852.69
2019-05-06T17:46:22.259Z,100850.49
2019-05-06T17:49:03.479Z,100853.08
2019-05-06T17:51:59.800Z,100850.61
2019-05-06T17:54:32.481Z,100850.64
2019-05-06T17:57:04.865Z,100851.77
2019-05-06T17:59:37.845Z,100852.86
2019-05-06T18:02:15.165Z,100862.42
2019-05-06T18:05:06.137Z,100861.77
2019-05-06T18:07:38.472Z,100864.97
2019-05-06T18:10:12.018Z,100863.80
2019-05-06T18:12:47.968Z,100867.37
2019-05-06T18:15:18.641Z,100870.38
2019-05-06T18:17:52.345Z,100875.48
2019-05-06T18:20:23.313Z,100879.94
2019-05-06T18:22:55.514Z,100878.47
2019-05-06T18:25:27.655Z,100875.80
2019-05-06T18:27:59.776Z,100881.27
2019-05-06T18:30:34.379Z,100884.86
2019-05-06T18:33:04.234Z,100893.26
2019-05-06T18:35:36.552Z,100888.00
2019-05-06T18:38:09.191Z,100883.66
2019-05-06T18:40:42.369Z,100889.83
2019-05-06T18:43:13.943Z,100891.61
2019-05-06T18:45:49.284Z,100895.13
2019-05-06T18:48:21.939Z,100897.91
2019-05-06T18:50:53.752Z,100902.41
2019-05-06T18:53:24.969Z,100912.94
2019-05-06T18:55:56.918Z,100913.41
2019-05-06T18:58:28.371Z,100925.48
2019-05-06T19:01:00.445Z,100922.77
2019-05-06T19:03:40.124Z,100925.08
2019-05-06T19:06:12.274Z,100924.77
2019-05-06T19:08:49.696Z,100932.37
2019-05-06T19:11:22.245Z,100932.72
2019-05-06T19:13:54.581Z,100930.47
2019-05-06T19:16:25.904Z,100933.81
2019-05-06T19:18:57.245Z,100937.81
2019-05-06T19:21:29.232Z,100943.61
2019-05-06T19:24:02.808Z,100940.73
2019-05-06T19:26:35.412Z,100942.35
2019-05-06T19:29:08.251Z,100949.13
2019-05-06T19:31:39.906Z,100946.57
2019-05-06T19:34:12.911Z,100948.69
2019-05-06T19:36:44.643Z,100948.60
2019-05-06T19:39:16.588Z,100955.11
2019-05-06T19:41:48.603Z,100952.91
2019-05-06T19:44:22.115Z,100950.25
2019-05-06T19:46:53.671Z,100952.02
2019-05-06T19:49:25.900Z,100956.75
2019-05-06T19:51:58.909Z,100954.48
2019-05-06T19:54:32.920Z,100953.79
2019-05-06T19:57:03.927Z,100957.84
2019-05-06T19:59:35.172Z,100961.30
2019-05-06T20:02:06.495Z,100960.94
2019-05-06T20:04:43.993Z,100962.68
2019-05-06T20:07:26.903Z,100964.02
2019-05-06T20:10:14.747Z,100957.34
2019-05-06T20:13:01.476Z,100955.63
2019-05-06T20:15:42.254Z,100956.55
2019-05-06T20:18:14.359Z,100954.05
2019-05-06T20:20:45.967Z,100957.73
2019-05-06T20:23:17.263Z,100955.55
2019-05-06T20:25:51.850Z,100956.95
2019-05-06T20:28:22.875Z,100956.49
2019-05-06T20:30:54.295Z,100954.33
2019-05-06T20:33:25.575Z,100958.77
2019-05-06T20:35:57.483Z,100955.41
2019-05-06T20:38:30.167Z,100959.34
2019-05-06T20:41:02.996Z,100959.92
2019-05-06T20:43:35.923Z,100964.38
2019-05-06T20:46:12.226Z,100959.55
2019-05-06T20:48:42.774Z,100960.86
2019-05-06T20:51:14.974Z,100965.15
2019-05-06T20:53:46.346Z,100970.02
2019-05-06T20:56:21.822Z,100964.69
2019-05-06T20:58:52.922Z,100968.66
2019-05-06T21:01:24.344Z,100965.13
2019-05-06T21:03:56.542Z,100969.47
2019-05-06T21:06:28.476Z,100962.94
2019-05-06T21:08:59.799Z,100966.01
2019-05-06T21:11:42.119Z,100970.86
2019-05-06T21:14:18.229Z,100960.25
2019-05-06T21:16:51.203Z,100962.00
2019-05-06T21:19:23.308Z,100963.38
2019-05-06T21:21:55.766Z,100964.25
2019-05-06T21:24:29.485Z,100963.69
2019-05-06T21:27:02.719Z,100966.84
2019-05-06T21:29:34.608Z,100962.52
2019-05-06T21:32:06.670Z,100962.43
2019-05-06T21:34:38.934Z,100958.09
2019-05-06T21:37:12.280Z,100958.53
2019-05-06T21:39:44.223Z,100957.23
2019-05-06T21:42:17.789Z,100956.79
2019-05-06T21:44:48.950Z,100952.01
2019-05-06T21:47:20.092Z,100956.90
2019-05-06T21:49:52.849Z,100951.58
2019-05-06T21:52:36.627Z,100949.44
2019-05-06T21:54:58.344Z,100950.36
2019-05-06T21:57:29.610Z,100941.63
2019-05-06T22:00:02.653Z,100941.68
2019-05-06T22:02:35.762Z,100942.51
2019-05-06T22:05:08.442Z,100939.00
2019-05-06T22:07:43.139Z,100944.77
2019-05-06T22:10:14.148Z,100942.56
2019-05-06T22:12:45.950Z,100931.14
2019-05-06T22:15:17.858Z,100932.88
2019-05-06T22:17:49.077Z,100934.27
2019-05-06T22:20:23.621Z,100936.52
2019-05-06T22:22:53.138Z,100924.73
2019-05-06T22:25:24.862Z,100926.93
2019-05-06T22:27:56.046Z,100932.27
2019-05-06T22:30:27.190Z,100937.12
2019-05-06T22:32:59.047Z,100933.20
2019-05-06T22:35:32.527Z,100927.97
2019-05-06T22:38:04.538Z,100923.61
2019-05-06T22:40:35.690Z,100927.11
2019-05-06T22:43:06.820Z,100921.87
2019-05-06T22:45:38.618Z,100921.87
2019-05-06T22:48:11.999Z,100923.62
2019-05-06T22:50:43.543Z,100924.05
2019-05-06T22:53:15.422Z,100925.80
2019-05-06T22:55:46.669Z,100922.31
2019-05-06T22:58:18.417Z,100924.52
2019-05-06T23:00:53.533Z,100929.34
2019-05-06T23:03:25.754Z,100928.03
2019-05-06T23:05:57.647Z,100925.80
2019-05-06T23:08:32.319Z,100920.54
2019-05-06T23:11:03.377Z,100922.30
2019-05-06T23:13:35.277Z,100924.05
2019-05-06T23:16:06.461Z,100922.30
2019-05-06T23:18:37.618Z,100920.98
2019-05-06T23:21:08.752Z,100924.95
2019-05-06T23:23:40.499Z,100921.88
2019-05-06T23:26:22.762Z,100920.56
2019-05-06T23:28:55.676Z,100924.94
2019-05-06T23:31:26.978Z,100919.25
2019-05-06T23:33:58.151Z,100928.89
2019-05-06T23:37:08.224Z,100928.91
2019-05-06T23:40:42.723Z,100925.82
2019-05-06T23:43:49.382Z,100934.57
2019-05-06T23:47:16.157Z,100933.25
2019-05-06T23:50:42.838Z,100927.52
2019-05-06T23:54:08.473Z,100923.14
2019-05-06T23:56:44.637Z,100925.72
2019-05-06T23:59:18.458Z,100920.94
